sensor_id;sensor_type;location;lat;lon;timestamp;temperature;humidity
51765;DHT22;37835;53.256;6.456;2022-11-09T00:02:21;11.50;99.90
51765;DHT22;37835;53.256;6.456;2022-11-09T00:04:47;11.50;99.90
51765;DHT22;37835;53.256;6.456;2022-11-09T00:07:12;11.50;99.90
51765;DHT22;37835;53.256;6.456;2022-11-09T00:09:38;11.50;99.90
51765;DHT22;37835;53.256;6.456;2022-11-09T00:12:04;11.40;99.90
51765;DHT22;37835;53.256;6.456;2022-11-09T00:14:32;11.50;99.90
51765;DHT22;37835;53.256;6.456;2022-11-09T00:16:58;11.40;99.90
51765;DHT22;37835;53.256;6.456;2022-11-09T00:19:23;11.40;99.90
51765;DHT22;37835;53.256;6.456;2022-11-09T00:21:49;11.50;99.90
51765;DHT22;37835;53.256;6.456;2022-11-09T00:24:15;11.40;99.90
51765;DHT22;37835;53.256;6.456;2022-11-09T00:26:40;11.40;99.90
51765;DHT22;37835;53.256;6.456;2022-11-09T00:29:06;11.50;99.90
51765;DHT22;37835;53.256;6.456;2022-11-09T00:31:32;11.50;99.90
51765;DHT22;37835;53.256;6.456;2022-11-09T00:33:58;11.50;99.90
51765;DHT22;37835;53.256;6.456;2022-11-09T00:36:26;11.50;99.90
51765;DHT22;37835;53.256;6.456;2022-11-09T00:38:53;11.50;99.90
51765;DHT22;37835;53.256;6.456;2022-11-09T00:41:20;11.50;99.90
51765;DHT22;37835;53.256;6.456;2022-11-09T00:43:46;11.50;99.90
51765;DHT22;37835;53.256;6.456;2022-11-09T00:46:12;11.50;99.90
51765;DHT22;37835;53.256;6.456;2022-11-09T00:48:38;11.50;99.90
51765;DHT22;37835;53.256;6.456;2022-11-09T00:51:04;11.50;99.90
51765;DHT22;37835;53.256;6.456;2022-11-09T00:53:30;11.50;99.90
51765;DHT22;37835;53.256;6.456;2022-11-09T00:56:06;11.50;99.90
51765;DHT22;37835;53.256;6.456;2022-11-09T00:58:34;11.50;99.90
51765;DHT22;37835;53.256;6.456;2022-11-09T01:01:06;11.50;99.90
51765;DHT22;37835;53.256;6.456;2022-11-09T01:03:31;11.50;99.90
51765;DHT22;37835;53.256;6.456;2022-11-09T01:06:00;11.50;99.90
51765;DHT22;37835;53.256;6.456;2022-11-09T01:08:26;11.60;99.90
51765;DHT22;37835;53.256;6.456;2022-11-09T01:10:51;11.60;99.90
51765;DHT22;37835;53.256;6.456;2022-11-09T01:13:18;11.60;99.90
51765;DHT22;37835;53.256;6.456;2022-11-09T01:15:49;11.60;99.90
51765;DHT22;37835;53.256;6.456;2022-11-09T01:18:17;11.60;99.90
51765;DHT22;37835;53.256;6.456;2022-11-09T01:20:48;11.60;99.90
51765;DHT22;37835;53.256;6.456;2022-11-09T01:23:16;11.70;99.90
51765;DHT22;37835;53.256;6.456;2022-11-09T01:25:43;11.70;99.90
51765;DHT22;37835;53.256;6.456;2022-11-09T01:28:09;11.70;99.90
51765;DHT22;37835;53.256;6.456;2022-11-09T01:30:38;11.80;99.90
51765;DHT22;37835;53.256;6.456;2022-11-09T01:33:05;11.80;99.90
51765;DHT22;37835;53.256;6.456;2022-11-09T01:35:35;11.80;99.90
51765;DHT22;37835;53.256;6.456;2022-11-09T01:38:02;11.90;99.90
51765;DHT22;37835;53.256;6.456;2022-11-09T01:40:30;11.90;99.90
51765;DHT22;37835;53.256;6.456;2022-11-09T01:42:56;11.90;99.90
51765;DHT22;37835;53.256;6.456;2022-11-09T01:45:27;12.00;99.90
51765;DHT22;37835;53.256;6.456;2022-11-09T01:48:05;12.00;99.90
51765;DHT22;37835;53.256;6.456;2022-11-09T01:50:41;12.10;99.90
51765;DHT22;37835;53.256;6.456;2022-11-09T01:53:14;12.10;99.90
51765;DHT22;37835;53.256;6.456;2022-11-09T01:55:41;12.20;99.90
51765;DHT22;37835;53.256;6.456;2022-11-09T01:58:13;12.20;99.90
51765;DHT22;37835;53.256;6.456;2022-11-09T02:00:42;12.20;99.90
51765;DHT22;37835;53.256;6.456;2022-11-09T02:03:14;12.30;99.90
51765;DHT22;37835;53.256;6.456;2022-11-09T02:05:43;12.20;99.90
51765;DHT22;37835;53.256;6.456;2022-11-09T02:08:09;12.20;99.90
51765;DHT22;37835;53.256;6.456;2022-11-09T02:13:08;12.20;99.90
51765;DHT22;37835;53.256;6.456;2022-11-09T02:15:36;12.10;99.90
51765;DHT22;37835;53.256;6.456;2022-11-09T02:18:03;12.10;99.90
51765;DHT22;37835;53.256;6.456;2022-11-09T02:20:28;12.10;99.90
51765;DHT22;37835;53.256;6.456;2022-11-09T02:22:55;12.10;99.90
51765;DHT22;37835;53.256;6.456;2022-11-09T02:25:20;12.10;99.90
51765;DHT22;37835;53.256;6.456;2022-11-09T02:27:46;12.10;99.90
51765;DHT22;37835;53.256;6.456;2022-11-09T02:30:13;12.10;99.90
51765;DHT22;37835;53.256;6.456;2022-11-09T02:32:39;12.10;99.90
51765;DHT22;37835;53.256;6.456;2022-11-09T02:35:04;12.10;99.90
51765;DHT22;37835;53.256;6.456;2022-11-09T02:37:34;12.10;99.90
51765;DHT22;37835;53.256;6.456;2022-11-09T02:40:05;12.10;99.90
51765;DHT22;37835;53.256;6.456;2022-11-09T02:42:32;12.00;99.90
51765;DHT22;37835;53.256;6.456;2022-11-09T02:44:58;12.00;99.90
51765;DHT22;37835;53.256;6.456;2022-11-09T02:47:24;12.00;99.90
51765;DHT22;37835;53.256;6.456;2022-11-09T02:49:50;11.90;99.90
51765;DHT22;37835;53.256;6.456;2022-11-09T02:52:16;12.30;99.90
51765;DHT22;37835;53.256;6.456;2022-11-09T02:54:42;11.90;99.90
51765;DHT22;37835;53.256;6.456;2022-11-09T02:57:07;11.90;99.90
51765;DHT22;37835;53.256;6.456;2022-11-09T02:59:33;11.90;99.90
51765;DHT22;37835;53.256;6.456;2022-11-09T03:01:59;11.80;99.90
51765;DHT22;37835;53.256;6.456;2022-11-09T03:04:24;11.80;99.90
51765;DHT22;37835;53.256;6.456;2022-11-09T03:06:50;11.80;99.90
51765;DHT22;37835;53.256;6.456;2022-11-09T03:09:15;11.80;99.90
51765;DHT22;37835;53.256;6.456;2022-11-09T03:11:41;11.70;99.90
51765;DHT22;37835;53.256;6.456;2022-11-09T03:14:07;11.70;99.90
51765;DHT22;37835;53.256;6.456;2022-11-09T03:16:37;11.70;99.90
51765;DHT22;37835;53.256;6.456;2022-11-09T03:19:03;11.70;99.90
51765;DHT22;37835;53.256;6.456;2022-11-09T03:21:28;11.70;99.90
51765;DHT22;37835;53.256;6.456;2022-11-09T03:23:54;11.70;99.90
51765;DHT22;37835;53.256;6.456;2022-11-09T03:26:20;11.60;99.90
51765;DHT22;37835;53.256;6.456;2022-11-09T03:28:46;11.60;99.90
51765;DHT22;37835;53.256;6.456;2022-11-09T03:31:12;11.60;99.90
51765;DHT22;37835;53.256;6.456;2022-11-09T03:33:38;11.60;99.90
51765;DHT22;37835;53.256;6.456;2022-11-09T03:36:04;11.60;99.90
51765;DHT22;37835;53.256;6.456;2022-11-09T03:38:30;11.60;99.90
51765;DHT22;37835;53.256;6.456;2022-11-09T03:40:58;11.60;99.90
51765;DHT22;37835;53.256;6.456;2022-11-09T03:43:23;11.60;99.90
51765;DHT22;37835;53.256;6.456;2022-11-09T03:45:49;11.60;99.90
51765;DHT22;37835;53.256;6.456;2022-11-09T03:48:15;11.60;99.90
51765;DHT22;37835;53.256;6.456;2022-11-09T03:50:40;11.60;99.90
51765;DHT22;37835;53.256;6.456;2022-11-09T03:53:07;11.50;99.90
51765;DHT22;37835;53.256;6.456;2022-11-09T03:55:34;11.50;99.90
51765;DHT22;37835;53.256;6.456;2022-11-09T03:58:00;11.30;99.90
51765;DHT22;37835;53.256;6.456;2022-11-09T04:00:26;11.50;99.90
51765;DHT22;37835;53.256;6.456;2022-11-09T04:02:51;11.50;99.90
51765;DHT22;37835;53.256;6.456;2022-11-09T04:05:17;11.50;99.90
51765;DHT22;37835;53.256;6.456;2022-11-09T04:07:51;11.50;99.90
51765;DHT22;37835;53.256;6.456;2022-11-09T04:10:17;11.50;99.90
51765;DHT22;37835;53.256;6.456;2022-11-09T04:12:44;11.50;99.90
51765;DHT22;37835;53.256;6.456;2022-11-09T04:15:10;11.50;99.90
51765;DHT22;37835;53.256;6.456;2022-11-09T04:17:36;11.50;99.90
51765;DHT22;37835;53.256;6.456;2022-11-09T04:20:02;11.50;99.90
51765;DHT22;37835;53.256;6.456;2022-11-09T04:22:28;11.50;99.90
51765;DHT22;37835;53.256;6.456;2022-11-09T04:24:53;11.50;99.90
51765;DHT22;37835;53.256;6.456;2022-11-09T04:27:19;11.50;99.90
51765;DHT22;37835;53.256;6.456;2022-11-09T04:29:44;11.50;99.90
51765;DHT22;37835;53.256;6.456;2022-11-09T04:32:10;11.40;99.90
51765;DHT22;37835;53.256;6.456;2022-11-09T04:34:35;11.40;99.90
51765;DHT22;37835;53.256;6.456;2022-11-09T04:37:01;11.50;99.90
51765;DHT22;37835;53.256;6.456;2022-11-09T04:39:26;11.40;99.90
51765;DHT22;37835;53.256;6.456;2022-11-09T04:41:52;11.40;99.90
51765;DHT22;37835;53.256;6.456;2022-11-09T04:44:17;11.40;99.90
51765;DHT22;37835;53.256;6.456;2022-11-09T04:46:43;11.40;99.90
51765;DHT22;37835;53.256;6.456;2022-11-09T04:49:09;11.50;99.90
51765;DHT22;37835;53.256;6.456;2022-11-09T04:51:34;11.40;99.90
51765;DHT22;37835;53.256;6.456;2022-11-09T04:54:00;11.50;99.90
51765;DHT22;37835;53.256;6.456;2022-11-09T04:56:25;11.50;99.90
51765;DHT22;37835;53.256;6.456;2022-11-09T04:58:51;11.50;99.90
51765;DHT22;37835;53.256;6.456;2022-11-09T05:01:16;11.50;99.90
51765;DHT22;37835;53.256;6.456;2022-11-09T05:03:42;11.50;99.90
51765;DHT22;37835;53.256;6.456;2022-11-09T05:06:08;11.50;99.90
51765;DHT22;37835;53.256;6.456;2022-11-09T05:08:53;11.40;99.90
51765;DHT22;37835;53.256;6.456;2022-11-09T05:11:19;11.50;99.90
51765;DHT22;37835;53.256;6.456;2022-11-09T05:13:44;11.50;99.90
51765;DHT22;37835;53.256;6.456;2022-11-09T05:16:10;11.50;99.90
51765;DHT22;37835;53.256;6.456;2022-11-09T05:18:35;11.50;99.90
51765;DHT22;37835;53.256;6.456;2022-11-09T05:21:02;11.50;99.90
51765;DHT22;37835;53.256;6.456;2022-11-09T05:23:27;11.50;99.90
51765;DHT22;37835;53.256;6.456;2022-11-09T05:26:12;11.50;99.90
51765;DHT22;37835;53.256;6.456;2022-11-09T05:28:37;11.60;99.90
51765;DHT22;37835;53.256;6.456;2022-11-09T05:31:04;11.60;99.90
51765;DHT22;37835;53.256;6.456;2022-11-09T05:33:30;11.60;99.90
51765;DHT22;37835;53.256;6.456;2022-11-09T05:35:56;11.40;99.90
51765;DHT22;37835;53.256;6.456;2022-11-09T05:38:23;11.60;99.90
51765;DHT22;37835;53.256;6.456;2022-11-09T05:40:52;11.60;99.90
51765;DHT22;37835;53.256;6.456;2022-11-09T05:43:18;11.60;99.90
51765;DHT22;37835;53.256;6.456;2022-11-09T05:45:44;11.60;99.90
51765;DHT22;37835;53.256;6.456;2022-11-09T05:48:11;11.60;99.90
51765;DHT22;37835;53.256;6.456;2022-11-09T05:50:38;11.60;99.90
51765;DHT22;37835;53.256;6.456;2022-11-09T05:53:06;11.60;99.90
51765;DHT22;37835;53.256;6.456;2022-11-09T05:55:32;11.60;99.90
51765;DHT22;37835;53.256;6.456;2022-11-09T05:57:57;11.60;99.90
51765;DHT22;37835;53.256;6.456;2022-11-09T06:00:23;11.60;99.90
51765;DHT22;37835;53.256;6.456;2022-11-09T06:02:49;11.60;99.90
51765;DHT22;37835;53.256;6.456;2022-11-09T06:05:14;11.60;99.90
51765;DHT22;37835;53.256;6.456;2022-11-09T06:07:41;11.60;99.90
51765;DHT22;37835;53.256;6.456;2022-11-09T06:10:07;11.60;99.90
51765;DHT22;37835;53.256;6.456;2022-11-09T06:12:33;11.70;99.90
51765;DHT22;37835;53.256;6.456;2022-11-09T06:14:59;11.50;99.90
51765;DHT22;37835;53.256;6.456;2022-11-09T06:17:24;11.50;99.90
51765;DHT22;37835;53.256;6.456;2022-11-09T06:19:50;11.50;99.90
51765;DHT22;37835;53.256;6.456;2022-11-09T06:22:16;11.50;99.90
51765;DHT22;37835;53.256;6.456;2022-11-09T06:24:41;11.50;99.90
51765;DHT22;37835;53.256;6.456;2022-11-09T06:27:07;11.50;99.90
51765;DHT22;37835;53.256;6.456;2022-11-09T06:29:32;11.40;99.90
51765;DHT22;37835;53.256;6.456;2022-11-09T06:31:58;11.40;99.90
51765;DHT22;37835;53.256;6.456;2022-11-09T06:34:24;11.40;99.90
51765;DHT22;37835;53.256;6.456;2022-11-09T06:36:49;11.40;99.90
51765;DHT22;37835;53.256;6.456;2022-11-09T06:39:15;11.40;99.90
51765;DHT22;37835;53.256;6.456;2022-11-09T06:41:41;11.40;99.90
51765;DHT22;37835;53.256;6.456;2022-11-09T06:44:06;11.40;99.90
51765;DHT22;37835;53.256;6.456;2022-11-09T06:46:32;11.30;99.90
51765;DHT22;37835;53.256;6.456;2022-11-09T06:48:58;11.30;99.90
51765;DHT22;37835;53.256;6.456;2022-11-09T06:51:23;11.30;99.90
51765;DHT22;37835;53.256;6.456;2022-11-09T06:53:49;11.30;99.90
51765;DHT22;37835;53.256;6.456;2022-11-09T06:56:15;11.20;99.90
51765;DHT22;37835;53.256;6.456;2022-11-09T06:58:40;11.20;99.90
51765;DHT22;37835;53.256;6.456;2022-11-09T07:01:11;11.20;99.90
51765;DHT22;37835;53.256;6.456;2022-11-09T07:03:37;11.20;99.90
51765;DHT22;37835;53.256;6.456;2022-11-09T07:06:05;11.20;99.90
51765;DHT22;37835;53.256;6.456;2022-11-09T07:08:31;11.20;99.90
51765;DHT22;37835;53.256;6.456;2022-11-09T07:11:11;11.20;99.90
51765;DHT22;37835;53.256;6.456;2022-11-09T07:13:38;11.20;99.90
51765;DHT22;37835;53.256;6.456;2022-11-09T07:16:05;11.20;99.90
51765;DHT22;37835;53.256;6.456;2022-11-09T07:18:31;11.20;99.90
51765;DHT22;37835;53.256;6.456;2022-11-09T07:20:56;11.20;99.90
51765;DHT22;37835;53.256;6.456;2022-11-09T07:23:22;11.10;99.90
51765;DHT22;37835;53.256;6.456;2022-11-09T07:25:48;11.10;99.90
51765;DHT22;37835;53.256;6.456;2022-11-09T07:28:13;11.20;99.90
51765;DHT22;37835;53.256;6.456;2022-11-09T07:30:39;11.10;99.90
51765;DHT22;37835;53.256;6.456;2022-11-09T07:33:14;11.20;99.90
51765;DHT22;37835;53.256;6.456;2022-11-09T07:35:40;11.10;99.90
51765;DHT22;37835;53.256;6.456;2022-11-09T07:38:06;11.10;99.90
51765;DHT22;37835;53.256;6.456;2022-11-09T07:40:32;11.10;99.90
51765;DHT22;37835;53.256;6.456;2022-11-09T07:42:59;11.10;99.90
51765;DHT22;37835;53.256;6.456;2022-11-09T07:45:25;11.10;99.90
51765;DHT22;37835;53.256;6.456;2022-11-09T07:47:56;11.20;99.90
51765;DHT22;37835;53.256;6.456;2022-11-09T07:50:22;11.20;99.90
51765;DHT22;37835;53.256;6.456;2022-11-09T07:52:47;11.20;99.90
51765;DHT22;37835;53.256;6.456;2022-11-09T07:55:13;11.20;99.90
51765;DHT22;37835;53.256;6.456;2022-11-09T07:57:38;11.20;99.90
51765;DHT22;37835;53.256;6.456;2022-11-09T08:00:04;11.20;99.90
51765;DHT22;37835;53.256;6.456;2022-11-09T08:02:30;11.30;99.90
51765;DHT22;37835;53.256;6.456;2022-11-09T08:04:55;10.90;99.90
51765;DHT22;37835;53.256;6.456;2022-11-09T08:07:21;11.30;99.90
51765;DHT22;37835;53.256;6.456;2022-11-09T08:09:48;10.00;99.90
51765;DHT22;37835;53.256;6.456;2022-11-09T08:12:13;11.30;99.90
51765;DHT22;37835;53.256;6.456;2022-11-09T08:14:39;11.30;99.90
51765;DHT22;37835;53.256;6.456;2022-11-09T08:17:04;11.40;99.90
51765;DHT22;37835;53.256;6.456;2022-11-09T08:19:30;11.40;99.90
51765;DHT22;37835;53.256;6.456;2022-11-09T08:21:55;11.40;99.90
51765;DHT22;37835;53.256;6.456;2022-11-09T08:24:22;11.40;99.90
51765;DHT22;37835;53.256;6.456;2022-11-09T08:26:48;11.50;99.90
51765;DHT22;37835;53.256;6.456;2022-11-09T08:29:13;11.50;99.90
51765;DHT22;37835;53.256;6.456;2022-11-09T08:31:40;11.50;99.90
51765;DHT22;37835;53.256;6.456;2022-11-09T08:34:10;11.60;99.90
51765;DHT22;37835;53.256;6.456;2022-11-09T08:36:35;11.60;99.90
51765;DHT22;37835;53.256;6.456;2022-11-09T08:39:01;11.60;99.90
51765;DHT22;37835;53.256;6.456;2022-11-09T08:41:27;11.60;99.90
51765;DHT22;37835;53.256;6.456;2022-11-09T08:43:53;11.70;99.90
51765;DHT22;37835;53.256;6.456;2022-11-09T08:46:19;11.70;99.90
51765;DHT22;37835;53.256;6.456;2022-11-09T08:48:44;11.70;99.90
51765;DHT22;37835;53.256;6.456;2022-11-09T08:51:10;11.70;99.90
51765;DHT22;37835;53.256;6.456;2022-11-09T08:53:35;11.80;99.90
51765;DHT22;37835;53.256;6.456;2022-11-09T08:56:01;11.80;99.90
51765;DHT22;37835;53.256;6.456;2022-11-09T08:58:29;11.90;99.90
51765;DHT22;37835;53.256;6.456;2022-11-09T09:00:55;11.90;99.90
51765;DHT22;37835;53.256;6.456;2022-11-09T09:03:20;11.90;99.90
51765;DHT22;37835;53.256;6.456;2022-11-09T09:05:46;11.90;99.90
51765;DHT22;37835;53.256;6.456;2022-11-09T09:08:11;12.00;99.90
51765;DHT22;37835;53.256;6.456;2022-11-09T09:10:39;12.00;99.90
51765;DHT22;37835;53.256;6.456;2022-11-09T09:13:05;12.10;99.90
51765;DHT22;37835;53.256;6.456;2022-11-09T09:15:31;12.10;99.90
51765;DHT22;37835;53.256;6.456;2022-11-09T09:17:59;12.10;99.90
51765;DHT22;37835;53.256;6.456;2022-11-09T09:20:25;12.20;99.90
51765;DHT22;37835;53.256;6.456;2022-11-09T09:22:50;12.20;99.90
51765;DHT22;37835;53.256;6.456;2022-11-09T09:25:16;12.20;99.90
51765;DHT22;37835;53.256;6.456;2022-11-09T09:27:44;12.30;99.90
51765;DHT22;37835;53.256;6.456;2022-11-09T09:30:10;12.30;99.90
51765;DHT22;37835;53.256;6.456;2022-11-09T09:32:36;12.30;99.90
51765;DHT22;37835;53.256;6.456;2022-11-09T09:35:02;12.40;99.90
51765;DHT22;37835;53.256;6.456;2022-11-09T09:37:28;12.50;99.90
51765;DHT22;37835;53.256;6.456;2022-11-09T09:39:53;12.50;99.90
51765;DHT22;37835;53.256;6.456;2022-11-09T09:42:23;12.50;99.90
51765;DHT22;37835;53.256;6.456;2022-11-09T09:45:12;12.60;99.90
51765;DHT22;37835;53.256;6.456;2022-11-09T09:47:57;12.60;99.90
51765;DHT22;37835;53.256;6.456;2022-11-09T09:50:27;12.70;99.90
51765;DHT22;37835;53.256;6.456;2022-11-09T09:53:00;12.70;99.90
51765;DHT22;37835;53.256;6.456;2022-11-09T09:55:49;12.80;99.90
51765;DHT22;37835;53.256;6.456;2022-11-09T09:58:27;12.80;99.90
51765;DHT22;37835;53.256;6.456;2022-11-09T10:01:01;12.90;99.90
51765;DHT22;37835;53.256;6.456;2022-11-09T10:03:28;12.90;99.90
51765;DHT22;37835;53.256;6.456;2022-11-09T10:09:09;13.00;99.90
51765;DHT22;37835;53.256;6.456;2022-11-09T10:11:59;13.10;99.90
51765;DHT22;37835;53.256;6.456;2022-11-09T10:14:32;13.10;99.90
51765;DHT22;37835;53.256;6.456;2022-11-09T10:17:13;13.10;99.90
51765;DHT22;37835;53.256;6.456;2022-11-09T10:22:50;13.10;99.90
51765;DHT22;37835;53.256;6.456;2022-11-09T10:27:55;13.20;99.90
51765;DHT22;37835;53.256;6.456;2022-11-09T10:30:23;13.20;99.90
51765;DHT22;37835;53.256;6.456;2022-11-09T10:35:47;13.30;99.90
51765;DHT22;37835;53.256;6.456;2022-11-09T10:38:41;13.40;99.90
51765;DHT22;37835;53.256;6.456;2022-11-09T10:41:25;13.40;99.90
51765;DHT22;37835;53.256;6.456;2022-11-09T10:43:52;13.40;99.90
51765;DHT22;37835;53.256;6.456;2022-11-09T10:46:18;13.40;99.90
51765;DHT22;37835;53.256;6.456;2022-11-09T10:48:45;13.40;99.90
51765;DHT22;37835;53.256;6.456;2022-11-09T10:51:34;13.40;99.90
51765;DHT22;37835;53.256;6.456;2022-11-09T10:54:17;13.40;99.90
51765;DHT22;37835;53.256;6.456;2022-11-09T10:56:46;13.40;99.90
51765;DHT22;37835;53.256;6.456;2022-11-09T11:01:57;13.40;99.90
51765;DHT22;37835;53.256;6.456;2022-11-09T11:04:24;13.30;99.90
51765;DHT22;37835;53.256;6.456;2022-11-09T11:06:50;13.30;99.90
51765;DHT22;37835;53.256;6.456;2022-11-09T11:09:19;13.30;99.90
51765;DHT22;37835;53.256;6.456;2022-11-09T11:11:45;13.20;99.90
51765;DHT22;37835;53.256;6.456;2022-11-09T11:16:45;13.20;99.90
51765;DHT22;37835;53.256;6.456;2022-11-09T11:19:25;13.20;99.90
51765;DHT22;37835;53.256;6.456;2022-11-09T11:22:24;13.20;99.90
51765;DHT22;37835;53.256;6.456;2022-11-09T11:25:04;13.20;99.90
51765;DHT22;37835;53.256;6.456;2022-11-09T11:27:52;13.20;99.90
51765;DHT22;37835;53.256;6.456;2022-11-09T11:30:27;13.10;99.90
51765;DHT22;37835;53.256;6.456;2022-11-09T11:32:53;13.20;99.90
51765;DHT22;37835;53.256;6.456;2022-11-09T11:35:42;13.20;99.90
51765;DHT22;37835;53.256;6.456;2022-11-09T11:44:24;13.20;99.90
51765;DHT22;37835;53.256;6.456;2022-11-09T11:49:44;13.20;99.90
51765;DHT22;37835;53.256;6.456;2022-11-09T11:52:31;13.10;99.90
51765;DHT22;37835;53.256;6.456;2022-11-09T11:57:54;13.50;99.90
51765;DHT22;37835;53.256;6.456;2022-11-09T12:00:22;13.10;99.90
51765;DHT22;37835;53.256;6.456;2022-11-09T12:02:53;13.20;99.90
51765;DHT22;37835;53.256;6.456;2022-11-09T12:11:02;13.20;99.90
51765;DHT22;37835;53.256;6.456;2022-11-09T12:30:33;13.10;99.90
51765;DHT22;37835;53.256;6.456;2022-11-09T12:33:16;13.10;99.90
51765;DHT22;37835;53.256;6.456;2022-11-09T12:35:54;13.00;99.90
51765;DHT22;37835;53.256;6.456;2022-11-09T12:38:32;13.10;99.90
51765;DHT22;37835;53.256;6.456;2022-11-09T12:41:17;13.10;99.90
51765;DHT22;37835;53.256;6.456;2022-11-09T12:43:57;13.00;99.90
51765;DHT22;37835;53.256;6.456;2022-11-09T12:46:29;12.90;99.90
51765;DHT22;37835;53.256;6.456;2022-11-09T12:48:58;13.00;99.90
51765;DHT22;37835;53.256;6.456;2022-11-09T12:51:26;13.00;99.90
51765;DHT22;37835;53.256;6.456;2022-11-09T12:53:54;13.10;99.90
51765;DHT22;37835;53.256;6.456;2022-11-09T12:56:27;13.10;99.90
51765;DHT22;37835;53.256;6.456;2022-11-09T12:59:21;13.10;99.90
51765;DHT22;37835;53.256;6.456;2022-11-09T13:01:58;13.10;99.90
51765;DHT22;37835;53.256;6.456;2022-11-09T13:04:25;13.20;99.90
51765;DHT22;37835;53.256;6.456;2022-11-09T13:07:15;13.20;99.90
51765;DHT22;37835;53.256;6.456;2022-11-09T13:09:41;13.20;99.90
51765;DHT22;37835;53.256;6.456;2022-11-09T13:12:40;13.10;99.90
51765;DHT22;37835;53.256;6.456;2022-11-09T13:15:29;13.10;99.90
51765;DHT22;37835;53.256;6.456;2022-11-09T13:18:24;12.90;99.90
51765;DHT22;37835;53.256;6.456;2022-11-09T13:20:51;12.90;99.90
51765;DHT22;37835;53.256;6.456;2022-11-09T13:25:51;12.80;99.90
51765;DHT22;37835;53.256;6.456;2022-11-09T13:30:52;12.60;99.90
51765;DHT22;37835;53.256;6.456;2022-11-09T13:33:44;12.60;99.90
51765;DHT22;37835;53.256;6.456;2022-11-09T13:38:35;12.40;99.90
51765;DHT22;37835;53.256;6.456;2022-11-09T13:42:02;12.30;99.90
51765;DHT22;37835;53.256;6.456;2022-11-09T13:44:15;12.30;99.90
51765;DHT22;37835;53.256;6.456;2022-11-09T13:46:43;12.20;99.90
51765;DHT22;37835;53.256;6.456;2022-11-09T13:52:02;12.00;99.90
51765;DHT22;37835;53.256;6.456;2022-11-09T13:54:33;12.00;99.90
51765;DHT22;37835;53.256;6.456;2022-11-09T13:57:02;12.00;99.90
51765;DHT22;37835;53.256;6.456;2022-11-09T13:59:35;12.00;99.90
51765;DHT22;37835;53.256;6.456;2022-11-09T14:02:17;12.00;99.90
51765;DHT22;37835;53.256;6.456;2022-11-09T14:04:43;12.00;99.90
51765;DHT22;37835;53.256;6.456;2022-11-09T14:07:28;12.10;99.90
51765;DHT22;37835;53.256;6.456;2022-11-09T14:10:15;12.00;99.90
51765;DHT22;37835;53.256;6.456;2022-11-09T14:13:01;12.00;99.90
51765;DHT22;37835;53.256;6.456;2022-11-09T14:18:35;12.10;99.90
51765;DHT22;37835;53.256;6.456;2022-11-09T14:23:31;12.10;99.90
51765;DHT22;37835;53.256;6.456;2022-11-09T14:25:57;12.00;99.90
51765;DHT22;37835;53.256;6.456;2022-11-09T14:28:28;12.00;99.90
51765;DHT22;37835;53.256;6.456;2022-11-09T14:30:54;12.00;99.90
51765;DHT22;37835;53.256;6.456;2022-11-09T14:33:33;11.90;99.90
51765;DHT22;37835;53.256;6.456;2022-11-09T14:36:02;11.90;99.90
51765;DHT22;37835;53.256;6.456;2022-11-09T14:38:34;12.60;99.90
51765;DHT22;37835;53.256;6.456;2022-11-09T14:41:01;11.80;99.90
51765;DHT22;37835;53.256;6.456;2022-11-09T14:43:35;11.80;99.90
51765;DHT22;37835;53.256;6.456;2022-11-09T14:46:05;11.80;99.90
51765;DHT22;37835;53.256;6.456;2022-11-09T14:48:32;11.80;99.90
51765;DHT22;37835;53.256;6.456;2022-11-09T14:51:01;11.80;99.90
51765;DHT22;37835;53.256;6.456;2022-11-09T14:53:32;11.70;99.90
51765;DHT22;37835;53.256;6.456;2022-11-09T14:56:02;11.70;99.90
51765;DHT22;37835;53.256;6.456;2022-11-09T14:58:30;11.90;99.90
51765;DHT22;37835;53.256;6.456;2022-11-09T15:01:20;11.70;99.90
51765;DHT22;37835;53.256;6.456;2022-11-09T15:06:30;11.60;99.90
51765;DHT22;37835;53.256;6.456;2022-11-09T15:09:05;11.60;99.90
51765;DHT22;37835;53.256;6.456;2022-11-09T15:11:36;11.60;99.90
51765;DHT22;37835;53.256;6.456;2022-11-09T15:14:21;11.60;99.90
51765;DHT22;37835;53.256;6.456;2022-11-09T15:16:48;11.50;99.90
51765;DHT22;37835;53.256;6.456;2022-11-09T15:19:22;11.40;99.90
51765;DHT22;37835;53.256;6.456;2022-11-09T15:21:47;11.40;99.90
51765;DHT22;37835;53.256;6.456;2022-11-09T15:24:16;11.40;99.90
51765;DHT22;37835;53.256;6.456;2022-11-09T15:26:45;11.30;99.90
51765;DHT22;37835;53.256;6.456;2022-11-09T15:29:39;11.30;99.90
51765;DHT22;37835;53.256;6.456;2022-11-09T15:34:40;11.20;99.90
51765;DHT22;37835;53.256;6.456;2022-11-09T15:37:26;11.20;99.90
51765;DHT22;37835;53.256;6.456;2022-11-09T15:39:52;11.10;99.90
51765;DHT22;37835;53.256;6.456;2022-11-09T15:42:19;11.10;99.90
51765;DHT22;37835;53.256;6.456;2022-11-09T15:44:45;11.10;99.90
51765;DHT22;37835;53.256;6.456;2022-11-09T15:47:26;11.10;99.90
51765;DHT22;37835;53.256;6.456;2022-11-09T15:49:57;11.10;99.90
51765;DHT22;37835;53.256;6.456;2022-11-09T15:52:23;11.10;99.90
51765;DHT22;37835;53.256;6.456;2022-11-09T15:54:49;11.10;99.90
51765;DHT22;37835;53.256;6.456;2022-11-09T15:57:16;11.10;99.90
51765;DHT22;37835;53.256;6.456;2022-11-09T15:59:47;11.10;99.90
51765;DHT22;37835;53.256;6.456;2022-11-09T16:02:13;11.10;99.90
51765;DHT22;37835;53.256;6.456;2022-11-09T16:04:40;11.10;99.90
51765;DHT22;37835;53.256;6.456;2022-11-09T16:07:06;11.00;99.90
51765;DHT22;37835;53.256;6.456;2022-11-09T16:09:32;11.00;99.90
51765;DHT22;37835;53.256;6.456;2022-11-09T16:11:58;11.00;99.90
51765;DHT22;37835;53.256;6.456;2022-11-09T16:14:23;11.00;99.90
51765;DHT22;37835;53.256;6.456;2022-11-09T16:16:49;11.00;99.90
51765;DHT22;37835;53.256;6.456;2022-11-09T16:19:15;11.00;99.90
51765;DHT22;37835;53.256;6.456;2022-11-09T16:21:41;11.00;99.90
51765;DHT22;37835;53.256;6.456;2022-11-09T16:24:07;10.90;99.90
51765;DHT22;37835;53.256;6.456;2022-11-09T16:26:33;10.90;99.90
51765;DHT22;37835;53.256;6.456;2022-11-09T16:28:58;10.90;99.90
51765;DHT22;37835;53.256;6.456;2022-11-09T16:31:24;10.90;99.90
51765;DHT22;37835;53.256;6.456;2022-11-09T16:33:50;10.90;99.90
51765;DHT22;37835;53.256;6.456;2022-11-09T16:36:18;11.50;99.90
51765;DHT22;37835;53.256;6.456;2022-11-09T16:38:51;10.90;99.90
51765;DHT22;37835;53.256;6.456;2022-11-09T16:41:17;10.90;99.90
51765;DHT22;37835;53.256;6.456;2022-11-09T16:43:46;10.90;99.90
51765;DHT22;37835;53.256;6.456;2022-11-09T16:46:19;10.90;99.90
51765;DHT22;37835;53.256;6.456;2022-11-09T16:48:45;10.90;99.90
51765;DHT22;37835;53.256;6.456;2022-11-09T16:51:11;10.90;99.90
51765;DHT22;37835;53.256;6.456;2022-11-09T16:53:36;10.90;99.90
51765;DHT22;37835;53.256;6.456;2022-11-09T16:56:02;10.90;99.90
51765;DHT22;37835;53.256;6.456;2022-11-09T16:58:28;10.90;99.90